Time;durP1;ratioP1;P1;durP2;ratioP2;P2;SDS_P1;SDS_P2;PMS_P1;PMS_P2;Temp;Humidity;BMP_temperature;BMP_pressure;BME280_temperature;BME280_humidity;BME280_pressure;Samples;Min_cycle;Max_cycle;Signal;HPM_P1;HPM_P2
2022/02/11 00:00:38;;;;;;;14.90;6.90;;;8.20;96.70;;;;;;5117179;27;20035;-83
2022/02/11 00:08:22;;;;;;;14.95;6.93;;;8.10;96.70;;;;;;5117275;27;20047;-82
2022/02/11 00:10:50;;;;;;;11.57;6.68;;;7.90;96.70;;;;;;5118960;27;20226;-82
2022/02/11 00:13:18;;;;;;;10.63;6.40;;;8.00;96.70;;;;;;5118718;27;20133;-82
2022/02/11 00:15:49;;;;;;;11.75;6.20;;;7.80;96.70;;;;;;5124037;27;20058;-82
2022/02/11 00:18:17;;;;;;;13.93;6.65;;;7.80;96.70;;;;;;5121546;27;20039;-83
2022/02/11 00:20:47;;;;;;;11.68;6.38;;;7.90;96.70;;;;;;5103203;28;20108;-83
2022/02/11 00:23:15;;;;;;;12.85;6.13;;;7.90;96.70;;;;;;5117025;27;20301;-83
2022/02/11 00:25:55;;;;;;;10.90;6.45;;;7.90;96.70;;;;;;5101681;28;20043;-82
2022/02/11 00:31:43;;;;;;;8.18;5.50;;;7.90;96.70;;;;;;5116594;27;20058;-82
2022/02/11 00:34:06;;;;;;;12.38;6.05;;;7.80;96.70;;;;;;5116155;27;20060;-83
2022/02/11 00:36:43;;;;;;;9.90;6.28;;;7.70;96.70;;;;;;5101413;27;20600;-82
2022/02/11 01:06:10;;;;;;;14.30;6.88;;;7.70;96.70;;;;;;5118414;27;20040;-83
2022/02/11 01:08:40;;;;;;;15.23;7.60;;;7.80;96.70;;;;;;5119969;28;20138;-83
2022/02/11 01:11:14;;;;;;;12.02;6.53;;;7.80;96.70;;;;;;5113649;27;20047;-83
2022/02/11 01:13:44;;;;;;;13.38;7.28;;;7.70;96.70;;;;;;5099683;27;20504;-82
2022/02/11 01:16:18;;;;;;;11.73;7.10;;;7.70;96.70;;;;;;5119738;27;20536;-83
2022/02/11 01:18:54;;;;;;;12.65;6.63;;;7.50;96.70;;;;;;5123993;27;20064;-82
2022/02/11 01:21:32;;;;;;;9.25;5.60;;;7.40;96.70;;;;;;5125903;27;20545;-82
2022/02/11 01:24:19;;;;;;;8.88;5.20;;;7.50;96.70;;;;;;5119551;27;20051;-83
2022/02/11 01:52:54;;;;;;;10.55;5.55;;;7.30;96.70;;;;;;5120282;27;20043;-84
2022/02/11 01:55:41;;;;;;;12.55;5.68;;;7.30;96.70;;;;;;5117650;27;20080;-83
2022/02/11 02:01:39;;;;;;;10.35;5.80;;;7.20;96.70;;;;;;5121918;27;20039;-84
2022/02/11 02:11:37;;;;;;;8.45;5.35;;;7.30;96.70;;;;;;5133321;27;20055;-84
2022/02/11 02:25:16;;;;;;;9.63;5.25;;;7.30;96.70;;;;;;5103093;27;20066;-84
2022/02/11 02:57:50;;;;;;;7.00;4.82;;;6.90;96.70;;;;;;5117944;27;20337;-83
2022/02/11 03:17:55;;;;;;;7.22;4.45;;;6.30;96.70;;;;;;5096460;27;20047;-82
2022/02/11 03:48:55;;;;;;;5.78;3.78;;;6.40;96.70;;;;;;5116953;27;20111;-82
2022/02/11 04:20:29;;;;;;;6.35;4.15;;;6.20;96.70;;;;;;5120790;27;19934;-82
2022/02/11 04:53:25;;;;;;;5.57;3.90;;;6.00;96.70;;;;;;5117513;27;20077;-83
2022/02/11 04:55:37;;;;;;;4.53;3.40;;;5.80;96.70;;;;;;5118388;27;20066;-82
2022/02/11 05:00:51;;;;;;;6.15;4.75;;;5.70;96.70;;;;;;5138775;27;20043;-82
2022/02/11 05:03:19;;;;;;;4.75;3.97;;;5.60;96.70;;;;;;5125637;27;20130;-82
2022/02/11 05:05:50;;;;;;;4.60;3.67;;;5.70;96.70;;;;;;5125364;27;20520;-82
2022/02/11 05:08:19;;;;;;;4.90;3.97;;;5.60;96.70;;;;;;5122653;27;20625;-82
2022/02/11 05:10:49;;;;;;;7.72;4.20;;;5.50;96.70;;;;;;5118831;27;20130;-82
2022/02/11 05:13:18;;;;;;;6.55;4.40;;;5.50;96.70;;;;;;5120121;27;20038;-83
2022/02/11 05:15:47;;;;;;;6.72;4.20;;;5.50;96.70;;;;;;5102357;27;20049;-83
2022/02/11 05:18:17;;;;;;;4.68;3.97;;;5.50;96.70;;;;;;5121926;27;20044;-82
2022/02/11 05:20:45;;;;;;;5.63;4.22;;;5.60;96.70;;;;;;5109114;27;20047;-82
2022/02/11 05:23:17;;;;;;;5.40;3.70;;;5.70;96.70;;;;;;5120253;27;20041;-82
2022/02/11 05:25:45;;;;;;;5.85;4.00;;;5.70;96.70;;;;;;5138019;27;20050;-83
2022/02/11 05:28:15;;;;;;;6.32;4.30;;;5.70;96.70;;;;;;5125494;27;20289;-82
2022/02/11 05:30:43;;;;;;;6.32;4.07;;;5.60;96.70;;;;;;5118261;27;20547;-82
2022/02/11 05:33:13;;;;;;;6.97;3.63;;;5.60;96.70;;;;;;5123220;27;20043;-82
2022/02/11 05:35:42;;;;;;;7.53;3.83;;;5.60;96.70;;;;;;5122760;27;20052;-82
2022/02/11 05:38:11;;;;;;;6.35;3.90;;;5.60;96.70;;;;;;5119865;27;20512;-83
2022/02/11 05:40:39;;;;;;;5.60;3.40;;;5.60;96.70;;;;;;5129854;27;20570;-82
2022/02/11 05:43:07;;;;;;;6.20;3.75;;;5.70;96.70;;;;;;5104100;27;20035;-83
2022/02/11 05:45:36;;;;;;;9.50;4.60;;;5.60;96.70;;;;;;5101816;27;20055;-83
2022/02/11 05:48:05;;;;;;;12.35;4.93;;;5.60;96.70;;;;;;5120732;27;20059;-83
2022/02/11 05:50:35;;;;;;;8.98;5.07;;;5.60;96.70;;;;;;5103402;27;20411;-82
2022/02/11 05:53:07;;;;;;;11.80;6.00;;;5.60;96.70;;;;;;5102088;27;20541;-83
2022/02/11 05:55:35;;;;;;;10.40;5.20;;;5.60;96.70;;;;;;5121106;27;20111;-83
2022/02/11 05:58:03;;;;;;;9.52;5.55;;;5.60;96.70;;;;;;5104641;27;22334;-83
2022/02/11 06:00:32;;;;;;;11.07;4.60;;;5.50;96.70;;;;;;5120480;27;20059;-84
2022/02/11 06:03:01;;;;;;;6.50;4.07;;;5.50;96.70;;;;;;5097152;27;20051;-84
2022/02/11 06:05:30;;;;;;;11.38;4.95;;;5.50;96.70;;;;;;5105470;27;20045;-84
2022/02/11 06:07:57;;;;;;;6.93;3.47;;;5.50;96.70;;;;;;5122026;27;20544;-84
2022/02/11 06:10:26;;;;;;;4.50;3.42;;;5.50;96.70;;;;;;5126823;27;20053;-83
2022/02/11 06:12:53;;;;;;;6.68;3.55;;;5.50;96.70;;;;;;5125316;27;20515;-81
2022/02/11 06:15:23;;;;;;;6.65;3.90;;;5.50;96.70;;;;;;5128518;27;20500;-83
2022/02/11 06:17:51;;;;;;;5.70;4.00;;;5.50;96.70;;;;;;5124972;27;20107;-83
2022/02/11 06:20:27;;;;;;;7.35;4.43;;;5.50;96.70;;;;;;5110094;27;20080;-83
2022/02/11 06:22:56;;;;;;;8.30;3.97;;;5.50;96.70;;;;;;5120944;27;20474;-84
2022/02/11 06:25:24;;;;;;;8.85;4.15;;;5.50;96.70;;;;;;5115628;27;20042;-83
2022/02/11 06:27:53;;;;;;;8.30;4.22;;;5.40;96.70;;;;;;5119602;27;20155;-83
2022/02/11 06:30:21;;;;;;;8.25;4.28;;;5.40;96.70;;;;;;5123770;27;20042;-83
2022/02/11 06:32:50;;;;;;;11.50;5.93;;;5.40;96.70;;;;;;5123824;27;20487;-83
2022/02/11 06:35:18;;;;;;;12.10;4.45;;;5.40;96.70;;;;;;5121508;27;20035;-84
2022/02/11 06:37:50;;;;;;;6.68;3.95;;;5.30;96.70;;;;;;5125079;27;20055;-82
2022/02/11 06:40:18;;;;;;;6.05;3.50;;;5.20;96.70;;;;;;5104990;27;20514;-82
2022/02/11 06:42:46;;;;;;;5.30;2.97;;;5.10;96.70;;;;;;5102568;28;20328;-84
2022/02/11 06:45:14;;;;;;;5.53;2.83;;;5.10;96.70;;;;;;5129857;27;20040;-83
2022/02/11 06:47:43;;;;;;;6.13;3.17;;;5.00;96.70;;;;;;5120942;27;20138;-83
2022/02/11 06:50:11;;;;;;;3.70;3.00;;;5.10;96.70;;;;;;5105706;27;20043;-83
2022/02/11 06:52:39;;;;;;;16.65;5.28;;;5.20;96.70;;;;;;5119364;27;20684;-83
2022/02/11 06:55:10;;;;;;;5.35;3.30;;;5.20;96.70;;;;;;5122185;27;20051;-85
2022/02/11 06:57:38;;;;;;;5.72;3.53;;;5.30;96.70;;;;;;5124032;27;20047;-82
2022/02/11 07:00:09;;;;;;;5.63;3.85;;;5.30;96.70;;;;;;5118785;27;20588;-83
2022/02/11 07:02:38;;;;;;;10.45;4.47;;;5.40;96.70;;;;;;5107562;27;20070;-82
2022/02/11 07:05:06;;;;;;;10.30;4.90;;;5.40;96.70;;;;;;5122726;27;20027;-83
2022/02/11 07:07:34;;;;;;;15.38;6.28;;;5.40;96.70;;;;;;5136159;27;20101;-84
2022/02/11 07:10:03;;;;;;;19.95;7.80;;;5.50;96.70;;;;;;5105139;27;20039;-83
2022/02/11 07:12:32;;;;;;;20.05;8.57;;;5.40;96.70;;;;;;5116264;27;20567;-84
2022/02/11 07:15:00;;;;;;;24.35;10.98;;;5.60;96.70;;;;;;5120940;27;20134;-83
2022/02/11 07:17:29;;;;;;;24.63;10.07;;;5.60;96.70;;;;;;5117254;27;20040;-83
2022/02/11 07:19:58;;;;;;;23.50;10.68;;;5.70;96.70;;;;;;5121131;27;20036;-83
2022/02/11 07:22:34;;;;;;;19.98;10.30;;;5.70;96.70;;;;;;5103605;27;20404;-82
2022/02/11 07:25:02;;;;;;;;;;;5.70;96.70;;;;;;5117126;27;20032;-84
2022/02/11 07:27:32;;;;;;;14.10;8.40;;;5.80;96.70;;;;;;5120462;27;19964;-83
2022/02/11 07:30:21;;;;;;;13.40;7.85;;;5.80;96.70;;;;;;5099659;27;20516;-82
2022/02/11 07:32:51;;;;;;;17.70;7.97;;;5.90;96.70;;;;;;5117248;27;20112;-83
2022/02/11 07:35:20;;;;;;;11.55;7.60;;;6.00;96.70;;;;;;5117265;27;20506;-83
2022/02/11 07:37:49;;;;;;;11.18;5.90;;;6.10;96.70;;;;;;5120003;27;20096;-82
2022/02/11 07:40:18;;;;;;;10.52;5.88;;;6.20;96.70;;;;;;5119974;27;20147;-83
2022/02/11 07:42:52;;;;;;;10.02;5.25;;;6.20;96.70;;;;;;5129712;27;20059;-83
2022/02/11 07:45:27;;;;;;;10.52;5.30;;;6.20;96.70;;;;;;5119802;27;20042;-83
2022/02/11 07:47:56;;;;;;;10.35;5.40;;;6.20;96.70;;;;;;5116281;27;20092;-82
2022/02/11 07:50:24;;;;;;;9.00;6.03;;;6.20;96.70;;;;;;5117367;27;20046;-82
2022/02/11 07:52:54;;;;;;;11.55;7.68;;;6.20;96.70;;;;;;5118339;27;20133;-82
2022/02/11 07:55:22;;;;;;;11.70;7.88;;;6.20;96.70;;;;;;5099937;27;20064;-82
2022/02/11 07:57:54;;;;;;;17.55;8.48;;;6.20;96.70;;;;;;5122475;27;20134;-82
2022/02/11 08:00:27;;;;;;;13.05;7.30;;;6.30;96.70;;;;;;5119395;27;20051;-82
2022/02/11 08:02:55;;;;;;;9.32;6.47;;;6.40;96.70;;;;;;5119275;27;20047;-84
2022/02/11 08:05:23;;;;;;;10.52;6.18;;;6.40;96.70;;;;;;5099575;27;20035;-83
2022/02/11 08:07:51;;;;;;;14.40;6.82;;;6.60;96.70;;;;;;5123539;27;20059;-84
2022/02/11 08:10:20;;;;;;;12.00;7.47;;;6.50;96.70;;;;;;5120616;27;20442;-84
2022/02/11 08:12:48;;;;;;;10.15;6.75;;;6.60;96.70;;;;;;5122505;27;20051;-85
2022/02/11 08:15:17;;;;;;;12.57;6.85;;;6.60;96.70;;;;;;5120410;27;20126;-85
2022/02/11 08:17:46;;;;;;;9.40;6.43;;;6.80;96.70;;;;;;5105167;28;20165;-83
2022/02/11 08:20:15;;;;;;;10.05;7.13;;;6.80;96.70;;;;;;5107521;27;20451;-83
2022/02/11 08:22:43;;;;;;;9.95;6.85;;;6.90;96.70;;;;;;5098705;28;20099;-83
2022/02/11 08:25:11;;;;;;;11.88;7.18;;;7.10;96.70;;;;;;5103620;28;20039;-83
2022/02/11 08:27:40;;;;;;;12.68;8.32;;;7.20;96.70;;;;;;5118407;27;20570;-83
2022/02/11 08:30:09;;;;;;;14.70;8.88;;;7.40;96.70;;;;;;5121731;27;20035;-83
2022/02/11 08:32:39;;;;;;;19.48;9.98;;;7.40;96.70;;;;;;5103979;28;20587;-83
2022/02/11 08:35:08;;;;;;;17.02;10.43;;;7.30;96.70;;;;;;5119305;27;20051;-82
2022/02/11 08:37:37;;;;;;;17.40;10.95;;;7.50;96.70;;;;;;5120039;28;20067;-82
2022/02/11 08:40:06;;;;;;;16.95;10.85;;;7.60;96.70;;;;;;5103163;28;20039;-83
2022/02/11 08:42:34;;;;;;;20.10;11.65;;;7.50;96.70;;;;;;5120774;28;20504;-81
2022/02/11 08:45:03;;;;;;;15.45;10.93;;;7.60;96.70;;;;;;5121531;27;20043;-83
2022/02/11 08:47:32;;;;;;;16.98;11.07;;;7.80;96.70;;;;;;5100099;28;20424;-84
2022/02/11 08:50:03;;;;;;;16.73;10.60;;;7.80;96.70;;;;;;5119291;27;20508;-82
2022/02/11 08:52:32;;;;;;;15.68;10.20;;;7.90;96.70;;;;;;5119051;28;20050;-82
2022/02/11 08:55:01;;;;;;;14.07;9.75;;;7.80;96.70;;;;;;5117094;27;20151;-83
2022/02/11 08:57:37;;;;;;;12.52;9.50;;;7.90;96.70;;;;;;5101921;27;20231;-82
2022/02/11 09:00:07;;;;;;;13.88;9.48;;;7.90;96.70;;;;;;5117402;27;20068;-84
2022/02/11 09:02:36;;;;;;;15.77;10.93;;;7.90;96.70;;;;;;5122930;27;20043;-82
2022/02/11 09:05:07;;;;;;;14.90;10.63;;;8.10;96.70;;;;;;5101905;28;20042;-82
2022/02/11 09:07:36;;;;;;;13.30;9.35;;;8.20;96.70;;;;;;5119189;27;20434;-83
2022/02/11 09:10:07;;;;;;;12.10;9.18;;;8.40;96.70;;;;;;5117472;27;20090;-82
2022/02/11 09:12:36;;;;;;;13.77;8.38;;;8.50;96.70;;;;;;5099786;28;20292;-82
2022/02/11 09:15:06;;;;;;;14.43;8.35;;;8.70;96.70;;;;;;5116396;28;20109;-80
2022/02/11 09:17:34;;;;;;;10.30;7.80;;;8.80;96.70;;;;;;5134936;27;20364;-80
2022/02/11 09:20:07;;;;;;;11.02;7.95;;;8.80;96.70;;;;;;5115539;27;20080;-80
2022/02/11 09:22:36;;;;;;;12.50;7.32;;;8.70;96.70;;;;;;5099502;28;20097;-79
2022/02/11 09:25:05;;;;;;;9.70;7.43;;;8.80;96.70;;;;;;5115634;27;20559;-79
2022/02/11 09:27:41;;;;;;;11.60;7.20;;;9.00;96.70;;;;;;5124800;27;20050;-81
2022/02/11 09:30:11;;;;;;;10.35;7.07;;;9.10;96.70;;;;;;5117590;27;20051;-81
2022/02/11 09:32:40;;;;;;;9.48;6.35;;;9.20;96.70;;;;;;5117205;27;20047;-81
2022/02/11 09:35:11;;;;;;;10.68;6.10;;;9.30;96.70;;;;;;5107655;27;20151;-82
2022/02/11 09:37:40;;;;;;;8.73;5.50;;;9.40;96.70;;;;;;5125210;27;20052;-80
2022/02/11 09:40:12;;;;;;;12.20;6.93;;;9.50;96.70;;;;;;5123298;27;20042;-81
2022/02/11 09:42:43;;;;;;;9.98;6.63;;;9.60;96.70;;;;;;5121304;27;20123;-81
2022/02/11 09:45:14;;;;;;;11.48;6.63;;;9.70;96.70;;;;;;5121314;27;20492;-80
2022/02/11 09:47:43;;;;;;;10.95;6.20;;;9.80;96.70;;;;;;5137839;27;20108;-81
2022/02/11 09:50:12;;;;;;;8.90;6.70;;;9.80;96.70;;;;;;5104708;27;20041;-80
2022/02/11 09:52:40;;;;;;;12.85;6.95;;;9.80;96.70;;;;;;5134623;27;20509;-80
2022/02/11 09:57:57;;;;;;;8.65;6.43;;;10.00;96.70;;;;;;5120626;27;20032;-82
2022/02/11 10:00:27;;;;;;;8.02;5.63;;;10.00;96.70;;;;;;5120334;27;20039;-82
2022/02/11 10:02:58;;;;;;;11.43;6.30;;;10.00;96.70;;;;;;5108351;27;20058;-81
2022/02/11 10:05:28;;;;;;;11.10;6.15;;;10.10;96.70;;;;;;5107383;27;20031;-81
2022/02/11 10:07:57;;;;;;;15.57;6.70;;;10.10;96.70;;;;;;5124602;27;20039;-79
2022/02/11 10:10:40;;;;;;;7.88;5.80;;;10.20;96.70;;;;;;5102403;27;20053;-82
2022/02/11 10:13:10;;;;;;;14.40;5.85;;;10.20;96.70;;;;;;5122375;27;20039;-82
2022/02/11 10:15:43;;;;;;;10.55;7.15;;;10.40;96.70;;;;;;5117182;27;20071;-82
2022/02/11 10:18:20;;;;;;;13.18;7.68;;;10.50;96.70;;;;;;5118971;27;20058;-82
2022/02/11 10:20:53;;;;;;;12.25;7.35;;;10.50;96.70;;;;;;5117208;27;20134;-82
2022/02/11 10:23:23;;;;;;;12.05;8.00;;;10.60;96.70;;;;;;5106949;27;20066;-81
2022/02/11 10:26:05;;;;;;;15.35;8.60;;;10.70;96.70;;;;;;5119993;27;20051;-81
2022/02/11 10:28:35;;;;;;;17.80;10.43;;;10.80;96.70;;;;;;5124145;27;20136;-82
2022/02/11 10:31:15;;;;;;;14.98;10.10;;;10.80;96.70;;;;;;5120382;27;20503;-81
2022/02/11 10:33:54;;;;;;;15.07;10.07;;;10.90;96.70;;;;;;5099952;27;20079;-83
2022/02/11 10:36:27;;;;;;;12.88;8.63;;;11.00;96.70;;;;;;5122025;27;20027;-84
2022/02/11 10:39:19;;;;;;;16.58;10.60;;;11.00;96.70;;;;;;5124912;27;20121;-82
2022/02/11 10:41:54;;;;;;;12.82;8.73;;;11.20;96.70;;;;;;5119853;27;20508;-81
2022/02/11 10:44:25;;;;;;;16.23;8.50;;;11.20;96.70;;;;;;5118615;27;20051;-86
2022/02/11 10:46:59;;;;;;;12.10;7.72;;;11.40;96.70;;;;;;5121444;27;20500;-82
2022/02/11 10:49:33;;;;;;;11.23;7.38;;;11.60;96.70;;;;;;5102722;27;20488;-81
2022/02/11 10:52:15;;;;;;;12.13;7.85;;;11.80;96.70;;;;;;5118960;27;20354;-82
2022/02/11 10:54:45;;;;;;;11.30;7.38;;;12.00;96.70;;;;;;5104314;27;20457;-82
2022/02/11 10:57:15;;;;;;;9.95;6.57;;;12.00;96.70;;;;;;5122709;27;20047;-83
2022/02/11 10:59:46;;;;;;;13.45;7.22;;;12.10;96.70;;;;;;5120429;27;20050;-84
2022/02/11 11:02:17;;;;;;;12.57;6.95;;;12.30;96.70;;;;;;5114029;27;21058;-82
2022/02/11 11:04:47;;;;;;;8.82;5.75;;;12.40;96.70;;;;;;5117048;27;20138;-83
2022/02/11 11:07:22;;;;;;;7.80;4.55;;;12.40;96.70;;;;;;5101212;27;20100;-84
2022/02/11 11:10:12;;;;;;;9.02;5.22;;;12.30;96.70;;;;;;5131708;27;20043;-83
2022/02/11 11:12:46;;;;;;;10.50;5.93;;;12.40;96.70;;;;;;5120375;27;20054;-84
2022/02/11 11:15:17;;;;;;;11.43;6.93;;;12.40;96.70;;;;;;5121316;27;20387;-84
2022/02/11 11:17:47;;;;;;;11.43;6.38;;;12.40;96.70;;;;;;5099955;27;20047;-84
2022/02/11 11:20:16;;;;;;;12.52;6.05;;;12.50;96.70;;;;;;5103623;27;20043;-84
2022/02/11 11:22:51;;;;;;;10.27;6.03;;;12.70;96.70;;;;;;5104985;27;20327;-83
2022/02/11 11:25:20;;;;;;;10.75;6.20;;;12.70;96.70;;;;;;5122098;27;20047;-84
2022/02/11 11:27:51;;;;;;;11.90;5.80;;;12.70;96.70;;;;;;5116971;27;20039;-83
2022/02/11 11:30:23;;;;;;;10.18;5.40;;;12.70;96.70;;;;;;5121016;27;20043;-83
2022/02/11 11:33:19;;;;;;;10.48;5.80;;;12.80;96.70;;;;;;5116014;27;20135;-82
2022/02/11 11:36:12;;;;;;;10.25;5.95;;;12.80;96.70;;;;;;5121788;27;20131;-83
2022/02/11 11:38:48;;;;;;;12.15;5.75;;;12.90;96.70;;;;;;5098245;28;20043;-83
2022/02/11 11:41:21;;;;;;;9.82;5.05;;;13.00;96.70;;;;;;5104306;27;20046;-84
2022/02/11 11:43:51;;;;;;;9.75;5.40;;;13.10;96.70;;;;;;5103023;27;20046;-86
2022/02/11 11:46:35;;;;;;;8.75;4.35;;;13.30;96.70;;;;;;5121009;27;20067;-86
2022/02/11 11:49:10;;;;;;;7.68;4.60;;;13.30;96.70;;;;;;5122267;27;20203;-86
2022/02/11 11:52:04;;;;;;;6.57;4.10;;;13.30;96.70;;;;;;5119976;27;20761;-85
2022/02/11 11:54:36;;;;;;;7.63;4.40;;;13.50;96.70;;;;;;5121724;27;20039;-86
2022/02/11 11:57:12;;;;;;;7.38;4.50;;;13.80;96.70;;;;;;5132317;27;20155;-85
2022/02/11 11:59:46;;;;;;;9.25;4.68;;;13.90;96.70;;;;;;5105128;27;20046;-86
2022/02/11 12:02:17;;;;;;;8.23;4.50;;;14.00;96.70;;;;;;5117592;27;20614;-86
2022/02/11 12:04:49;;;;;;;8.38;4.32;;;14.20;96.70;;;;;;5100927;27;20051;-86
2022/02/11 12:07:20;;;;;;;11.13;4.05;;;14.30;96.70;;;;;;5118703;27;20126;-85
2022/02/11 12:09:52;;;;;;;8.95;4.22;;;14.30;96.70;;;;;;5121317;27;20043;-86
2022/02/11 12:12:22;;;;;;;9.18;3.83;;;14.40;96.70;;;;;;5118527;27;20040;-85
2022/02/11 12:14:54;;;;;;;10.75;3.90;;;14.50;96.70;;;;;;5104543;27;20057;-82
2022/02/11 12:17:24;;;;;;;6.00;3.72;;;14.70;96.70;;;;;;5124077;27;20049;-82
2022/02/11 12:19:53;;;;;;;10.23;3.40;;;14.80;96.70;;;;;;5117079;27;20045;-83
2022/02/11 12:22:24;;;;;;;8.23;3.72;;;15.00;96.70;;;;;;5116806;27;20045;-83
2022/02/11 12:27:45;;;;;;;8.75;4.03;;;15.50;96.70;;;;;;5116114;27;20528;-82
2022/02/11 12:30:16;;;;;;;6.20;2.58;;;15.50;96.70;;;;;;5103766;28;20054;-85
2022/02/11 12:32:46;;;;;;;8.35;2.97;;;15.40;96.70;;;;;;5116714;27;20050;-84
2022/02/11 12:35:21;;;;;;;5.25;2.58;;;15.60;96.70;;;;;;5138429;27;20047;-85
2022/02/11 12:37:50;;;;;;;6.07;2.50;;;15.60;96.70;;;;;;5108830;28;20047;-86
2022/02/11 12:40:24;;;;;;;6.80;2.42;;;15.60;96.70;;;;;;5104090;28;20120;-85
2022/02/11 12:42:55;;;;;;;5.70;2.42;;;15.70;96.70;;;;;;5133812;27;20031;-85
2022/02/11 12:45:28;;;;;;;7.82;3.13;;;15.70;96.70;;;;;;5101821;28;20039;-85
2022/02/11 12:47:57;;;;;;;7.38;3.30;;;15.50;96.70;;;;;;5119188;28;20569;-84
2022/02/11 12:50:30;;;;;;;7.68;4.38;;;15.30;96.70;;;;;;5121486;27;20138;-85
2022/02/11 12:52:59;;;;;;;7.97;4.70;;;15.20;96.70;;;;;;5112747;28;20476;-84
2022/02/11 12:55:35;;;;;;;8.13;4.70;;;15.00;96.70;;;;;;5104850;28;20050;-84
2022/02/11 12:58:06;;;;;;;5.78;3.53;;;14.60;96.70;;;;;;5119118;27;20039;-84
2022/02/11 13:00:36;;;;;;;4.68;3.10;;;14.50;96.70;;;;;;5128178;27;20499;-84
2022/02/11 13:03:10;;;;;;;6.75;3.20;;;14.70;96.70;;;;;;5099651;27;20428;-85
2022/02/11 13:05:42;;;;;;;5.07;2.97;;;15.00;96.70;;;;;;5119845;27;20988;-85
2022/02/11 13:08:17;;;;;;;8.32;3.50;;;15.20;96.70;;;;;;5117051;28;20050;-85
2022/02/11 13:10:55;;;;;;;4.72;2.55;;;15.30;96.70;;;;;;5122171;27;20039;-85
2022/02/11 13:13:23;;;;;;;9.38;3.42;;;15.20;96.70;;;;;;5119696;27;20051;-85
2022/02/11 13:15:54;;;;;;;6.70;2.55;;;15.10;96.70;;;;;;5102970;27;20046;-86
2022/02/11 13:18:24;;;;;;;6.80;2.90;;;14.90;96.70;;;;;;5120158;27;20047;-83
2022/02/11 13:20:54;;;;;;;7.15;3.00;;;14.80;96.70;;;;;;5121999;27;20124;-83
2022/02/11 13:23:24;;;;;;;7.10;3.10;;;14.70;96.70;;;;;;5124348;27;20027;-83
2022/02/11 13:25:56;;;;;;;8.90;3.40;;;14.60;96.70;;;;;;5104518;27;20458;-83
2022/02/11 13:28:25;;;;;;;10.70;3.35;;;14.50;96.70;;;;;;5138225;27;20062;-83
2022/02/11 13:30:55;;;;;;;6.43;2.75;;;14.40;96.70;;;;;;5105787;27;20042;-84
2022/02/11 13:33:25;;;;;;;6.28;2.17;;;14.50;96.70;;;;;;5121639;27;20054;-83
2022/02/11 13:35:57;;;;;;;4.53;2.30;;;14.40;96.70;;;;;;5123223;27;20070;-84
2022/02/11 13:38:27;;;;;;;4.53;2.40;;;14.40;96.70;;;;;;5107719;27;20283;-84
2022/02/11 13:40:58;;;;;;;5.43;2.40;;;14.30;96.70;;;;;;5106055;27;20512;-83
2022/02/11 13:43:28;;;;;;;7.72;2.17;;;14.20;96.70;;;;;;5139087;27;20039;-83
2022/02/11 13:45:57;;;;;;;3.47;1.73;;;14.20;96.70;;;;;;5108518;27;20031;-83
2022/02/11 13:48:28;;;;;;;5.68;1.77;;;14.20;96.70;;;;;;5125956;27;20047;-83
2022/02/11 13:51:05;;;;;;;3.63;1.70;;;14.20;96.70;;;;;;5118428;27;20066;-83
2022/02/11 13:53:37;;;;;;;4.80;1.52;;;14.20;96.70;;;;;;5123736;27;20228;-82
2022/02/11 13:56:09;;;;;;;3.22;1.40;;;14.10;96.70;;;;;;5118101;27;20121;-83
2022/02/11 13:58:39;;;;;;;5.00;1.80;;;14.10;96.70;;;;;;5116103;27;20088;-83
2022/02/11 14:01:33;;;;;;;6.07;2.55;;;14.10;96.70;;;;;;5143496;27;20042;-83
2022/02/11 14:04:03;;;;;;;4.50;1.48;;;14.10;96.70;;;;;;5077316;27;20052;-82
2022/02/11 14:06:37;;;;;;;8.73;4.38;;;14.00;96.70;;;;;;5120087;27;20038;-82
2022/02/11 14:09:07;;;;;;;7.18;3.03;;;14.00;96.70;;;;;;5122529;27;20070;-83
2022/02/11 14:11:39;;;;;;;4.50;2.47;;;13.90;96.70;;;;;;5137385;27;20039;-83
2022/02/11 14:14:12;;;;;;;4.82;2.05;;;13.90;96.70;;;;;;5120862;27;20043;-82
2022/02/11 14:16:40;;;;;;;7.40;2.17;;;13.90;96.70;;;;;;5107064;27;20046;-83
2022/02/11 14:19:08;;;;;;;3.92;1.50;;;13.90;96.70;;;;;;5120985;27;20139;-83
2022/02/11 14:21:37;;;;;;;4.53;1.50;;;13.90;96.70;;;;;;5106021;27;20097;-83
2022/02/11 14:24:07;;;;;;;3.67;2.03;;;13.80;96.70;;;;;;5121487;27;20157;-83
2022/02/11 14:26:37;;;;;;;6.03;2.58;;;13.80;96.70;;;;;;5121443;27;20051;-83
2022/02/11 14:29:07;;;;;;;4.35;2.30;;;13.80;96.70;;;;;;5123365;27;20042;-82
2022/02/11 14:31:35;;;;;;;4.45;1.63;;;13.80;96.70;;;;;;5120278;27;20039;-83
2022/02/11 14:34:03;;;;;;;2.70;1.20;;;13.70;96.70;;;;;;5105801;27;20208;-83
2022/02/11 14:36:32;;;;;;;4.80;1.80;;;13.80;96.70;;;;;;5102664;27;20062;-85
2022/02/11 14:39:00;;;;;;;8.02;3.67;;;13.80;96.70;;;;;;5123474;27;20052;-84
2022/02/11 14:41:47;;;;;;;11.77;6.55;;;13.70;96.70;;;;;;5118360;27;20058;-82
2022/02/11 14:44:17;;;;;;;14.65;7.95;;;13.50;96.70;;;;;;5117850;27;20514;-82
2022/02/11 14:46:47;;;;;;;13.18;7.28;;;13.30;96.70;;;;;;5117566;27;20036;-83
2022/02/11 14:49:18;;;;;;;11.23;6.85;;;13.30;96.70;;;;;;5119643;27;20053;-82
2022/02/11 14:51:49;;;;;;;12.25;6.28;;;13.20;96.70;;;;;;5105394;27;20081;-82
2022/02/11 14:54:19;;;;;;;11.82;6.38;;;13.30;96.70;;;;;;5104890;27;20051;-82
2022/02/11 14:56:48;;;;;;;11.85;6.30;;;13.30;96.70;;;;;;5103531;27;20039;-83
2022/02/11 14:59:19;;;;;;;11.13;6.07;;;13.30;96.70;;;;;;5121297;27;20088;-83
2022/02/11 15:01:47;;;;;;;12.15;6.90;;;13.30;96.70;;;;;;5118219;27;20073;-84
2022/02/11 15:04:16;;;;;;;14.48;7.65;;;13.30;96.70;;;;;;5119536;27;20039;-83
2022/02/11 15:06:47;;;;;;;10.65;6.45;;;13.20;96.70;;;;;;5119954;27;20070;-83
2022/02/11 15:09:15;;;;;;;8.65;5.63;;;13.20;96.70;;;;;;5118829;27;20031;-84
2022/02/11 15:11:43;;;;;;;10.63;6.47;;;13.20;96.70;;;;;;5109354;27;20306;-83
2022/02/11 15:14:12;;;;;;;10.85;5.90;;;13.20;96.70;;;;;;5104926;27;20134;-83
2022/02/11 15:16:41;;;;;;;12.30;6.00;;;13.30;96.70;;;;;;5105112;27;20043;-83
2022/02/11 15:19:10;;;;;;;12.07;8.05;;;13.30;96.70;;;;;;5121372;27;20062;-83
2022/02/11 15:21:38;;;;;;;17.23;10.45;;;13.30;96.70;;;;;;5121400;27;20442;-84
2022/02/11 15:24:07;;;;;;;16.45;10.20;;;13.30;96.70;;;;;;5118263;27;20047;-83
2022/02/11 15:26:35;;;;;;;17.65;12.13;;;13.30;96.70;;;;;;5119535;27;20043;-83
2022/02/11 15:29:03;;;;;;;15.48;10.65;;;13.40;96.70;;;;;;5121420;27;20108;-84
2022/02/11 15:31:32;;;;;;;13.32;8.40;;;13.40;96.70;;;;;;5103942;27;20071;-84
2022/02/11 15:34:02;;;;;;;13.02;7.10;;;13.40;96.70;;;;;;5119885;27;20066;-84
2022/02/11 15:36:30;;;;;;;12.75;6.40;;;13.40;96.70;;;;;;5121599;27;21098;-84
2022/02/11 15:38:58;;;;;;;10.13;5.47;;;13.40;96.70;;;;;;5119146;27;20052;-84
2022/02/11 15:41:26;;;;;;;10.32;5.70;;;13.40;96.70;;;;;;5115761;27;20077;-84
2022/02/11 15:43:55;;;;;;;9.43;4.85;;;13.30;96.70;;;;;;5101847;27;20336;-83
2022/02/11 15:46:24;;;;;;;11.30;4.38;;;13.30;96.70;;;;;;5124069;27;20068;-83
2022/02/11 15:48:52;;;;;;;9.95;5.85;;;13.20;96.70;;;;;;5132779;27;20135;-83
2022/02/11 15:51:22;;;;;;;8.75;4.93;;;13.20;96.70;;;;;;5105493;27;20043;-84
2022/02/11 15:53:50;;;;;;;11.85;5.30;;;13.20;96.70;;;;;;5098210;27;20053;-84
2022/02/11 15:56:21;;;;;;;10.48;5.88;;;13.20;96.70;;;;;;5120693;27;20050;-84
2022/02/11 15:58:49;;;;;;;11.02;5.43;;;13.10;96.70;;;;;;5101413;27;20047;-84
2022/02/11 16:01:18;;;;;;;9.18;5.00;;;13.10;96.70;;;;;;5120995;27;20500;-84
2022/02/11 16:03:46;;;;;;;7.47;4.72;;;13.00;96.70;;;;;;5116420;27;20500;-84
2022/02/11 16:06:15;;;;;;;7.53;4.05;;;13.00;96.70;;;;;;5119906;27;20916;-83
2022/02/11 16:08:44;;;;;;;8.35;4.38;;;12.90;96.70;;;;;;5120390;27;20043;-84
2022/02/11 16:11:13;;;;;;;10.32;4.75;;;12.90;96.70;;;;;;5099797;27;20043;-83
2022/02/11 16:13:41;;;;;;;9.90;5.07;;;12.90;96.70;;;;;;5103688;27;20031;-84
2022/02/11 16:16:09;;;;;;;7.90;5.13;;;12.90;96.70;;;;;;5119464;27;20059;-84
2022/02/11 16:18:37;;;;;;;15.07;9.23;;;12.80;96.70;;;;;;5118779;27;20104;-83
2022/02/11 16:21:05;;;;;;;12.93;6.00;;;12.90;96.70;;;;;;5122275;27;20063;-84
2022/02/11 16:23:40;;;;;;;11.70;6.00;;;12.80;96.70;;;;;;5099229;27;20111;-84
2022/02/11 16:26:10;;;;;;;9.60;5.32;;;12.80;96.70;;;;;;5122822;27;20387;-83
2022/02/11 16:28:39;;;;;;;8.23;4.65;;;12.80;96.70;;;;;;5122499;27;20043;-84
2022/02/11 16:31:18;;;;;;;9.75;4.70;;;12.80;96.70;;;;;;5120355;27;20057;-84
2022/02/11 16:33:48;;;;;;;11.82;5.68;;;12.80;96.70;;;;;;5120884;27;20035;-83
2022/02/11 16:36:16;;;;;;;9.23;4.50;;;12.70;96.70;;;;;;5118539;27;20078;-83
2022/02/11 16:38:45;;;;;;;11.60;4.20;;;12.70;96.70;;;;;;5121601;28;20049;-82
2022/02/11 16:41:17;;;;;;;8.45;4.32;;;12.70;96.70;;;;;;5123408;28;20046;-83
2022/02/11 16:43:46;;;;;;;8.98;4.45;;;12.60;96.70;;;;;;5103552;27;20043;-83
2022/02/11 16:46:14;;;;;;;7.78;4.68;;;12.60;96.70;;;;;;5123883;27;20553;-84
2022/02/11 16:48:43;;;;;;;9.27;4.32;;;12.60;96.70;;;;;;5107289;27;20054;-84
2022/02/11 16:51:11;;;;;;;10.13;4.82;;;12.60;96.70;;;;;;5119226;27;20602;-84